ROMMA est une association bénévole à but non lucratif. Votre soutien est indispensable : ADHERER à ROMMA ou FAIRE un DON

Crest - (26, Drôme)

Vallée de la Drôme (315 m)   Longitude: 5°2' E   Latitude: 44°44' N Station partenaire n°62
 

Détail journalier du     <<     >>

Température Precipitation Humidité Pression Vent Dir Rafale Dir. rafale Ensol.
Heure (°C) (mm) (%) (hPa) (km/h) (km/h) (min)
01:00 7.307010106ENE26NNE0
02:00 6.907310106NE16NE0
03:00 6.407610113S8NE0
04:00 5.808010133SE10N0
05:00 5.708010132---6NE0
06:00 5.308310143S8S0
07:00 5.208510153S11S0
08:00 5.308510164S11SSE0
09:00 5.308610171SSO6SSO0
10:00 7.807710181SSO5SSO13
11:00 7.807910192SO8NE11
12:00 8.407210194SSO16NE7
13:00 8.807010196SSO19NE3
14:00 9.2064101912NE34NNE17
15:00 8.806610209NE31NNE0
16:00 9.206310209NE23NE28
17:00 8.5055102111NNE26NE30
18:00 8.105510229NNE26NNE0
19:00 7.205810227NNO16NNO0
20:00 6.206410232SO5NNE0
21:00 4.706910231SO6SO0
22:00 4.107310242SO5SO0
23:00 3.407710242S5S0
minuit 3.107810241S5S0

Graphique du 23-12-2019

 

Serveur OMMA